sensor_id;sensor_type;location;lat;lon;timestamp;pressure;altitude;pressure_sealevel;temperature;humidity
71361;BME280;59166;48.908;1.870;2022-12-29T00:03:54;99338.78;;;10.90;100.00
71361;BME280;59166;48.908;1.870;2022-12-29T00:08:55;99349.59;;;10.90;100.00
71361;BME280;59166;48.908;1.870;2022-12-29T00:13:57;99328.78;;;10.90;100.00
71361;BME280;59166;48.908;1.870;2022-12-29T00:18:58;99343.34;;;10.94;100.00
71361;BME280;59166;48.908;1.870;2022-12-29T00:23:59;99335.69;;;11.01;100.00
71361;BME280;59166;48.908;1.870;2022-12-29T00:29:02;99320.56;;;11.00;100.00
71361;BME280;59166;48.908;1.870;2022-12-29T00:34:03;99297.34;;;10.99;100.00
71361;BME280;59166;48.908;1.870;2022-12-29T00:39:23;99302.25;;;10.97;100.00
71361;BME280;59166;48.908;1.870;2022-12-29T00:44:26;99302.75;;;10.99;100.00
71361;BME280;59166;48.908;1.870;2022-12-29T00:49:26;99306.03;;;10.96;100.00
71361;BME280;59166;48.908;1.870;2022-12-29T00:54:28;99323.63;;;10.94;100.00
71361;BME280;59166;48.908;1.870;2022-12-29T00:59:31;99300.66;;;10.91;100.00
71361;BME280;59166;48.908;1.870;2022-12-29T01:04:32;99298.50;;;10.93;100.00
71361;BME280;59166;48.908;1.870;2022-12-29T01:09:33;99305.28;;;10.91;100.00
71361;BME280;59166;48.908;1.870;2022-12-29T01:14:36;99310.91;;;10.94;100.00
71361;BME280;59166;48.908;1.870;2022-12-29T01:19:37;99304.94;;;10.97;100.00
71361;BME280;59166;48.908;1.870;2022-12-29T01:24:37;99308.72;;;10.96;100.00
71361;BME280;59166;48.908;1.870;2022-12-29T01:29:40;99293.81;;;10.99;100.00
71361;BME280;59166;48.908;1.870;2022-12-29T01:34:40;99293.56;;;11.00;100.00
71361;BME280;59166;48.908;1.870;2022-12-29T01:39:41;99313.63;;;10.94;100.00
71361;BME280;59166;48.908;1.870;2022-12-29T01:44:54;99313.09;;;10.92;100.00
71361;BME280;59166;48.908;1.870;2022-12-29T01:49:59;99310.63;;;10.96;100.00
71361;BME280;59166;48.908;1.870;2022-12-29T01:55:04;99302.50;;;10.96;100.00
71361;BME280;59166;48.908;1.870;2022-12-29T02:00:09;99310.91;;;10.94;100.00
71361;BME280;59166;48.908;1.870;2022-12-29T02:05:14;99326.59;;;10.92;100.00
71361;BME280;59166;48.908;1.870;2022-12-29T02:10:18;99335.84;;;10.86;100.00
71361;BME280;59166;48.908;1.870;2022-12-29T02:15:26;99320.69;;;10.90;100.00
71361;BME280;59166;48.908;1.870;2022-12-29T02:26:14;99327.97;;;10.90;97.98
71361;BME280;59166;48.908;1.870;2022-12-29T02:31:27;99318.78;;;10.91;97.56
71361;BME280;59166;48.908;1.870;2022-12-29T02:36:40;99316.88;;;10.91;96.04
71361;BME280;59166;48.908;1.870;2022-12-29T02:42:06;99317.97;;;10.90;95.50
71361;BME280;59166;48.908;1.870;2022-12-29T02:47:15;99325.03;;;10.86;93.63
71361;BME280;59166;48.908;1.870;2022-12-29T02:52:22;99320.81;;;10.75;93.87
71361;BME280;59166;48.908;1.870;2022-12-29T02:57:32;99323.91;;;10.63;96.01
71361;BME280;59166;48.908;1.870;2022-12-29T03:02:44;99323.91;;;10.58;96.38
71361;BME280;59166;48.908;1.870;2022-12-29T03:07:56;99321.06;;;10.45;98.01
71361;BME280;59166;48.908;1.870;2022-12-29T03:13:03;99321.88;;;10.45;97.82
71361;BME280;59166;48.908;1.870;2022-12-29T03:23:18;99330.88;;;10.35;97.95
71361;BME280;59166;48.908;1.870;2022-12-29T03:28:22;99325.03;;;10.23;98.44
71361;BME280;59166;48.908;1.870;2022-12-29T03:33:26;99338.50;;;10.23;97.79
71361;BME280;59166;48.908;1.870;2022-12-29T03:38:34;99341.25;;;10.18;97.55
71361;BME280;59166;48.908;1.870;2022-12-29T03:43:36;99334.31;;;10.12;96.95
71361;BME280;59166;48.908;1.870;2022-12-29T03:48:37;99341.28;;;10.13;95.85
71361;BME280;59166;48.908;1.870;2022-12-29T03:53:39;99344.53;;;10.10;96.19
71361;BME280;59166;48.908;1.870;2022-12-29T03:58:40;99353.22;;;10.07;95.06
71361;BME280;59166;48.908;1.870;2022-12-29T04:03:40;99357.84;;;10.02;95.26
71361;BME280;59166;48.908;1.870;2022-12-29T04:08:42;99351.38;;;10.03;95.48
71361;BME280;59166;48.908;1.870;2022-12-29T04:13:43;99362.44;;;10.01;95.42
71361;BME280;59166;48.908;1.870;2022-12-29T04:18:44;99374.53;;;10.04;95.02
71361;BME280;59166;48.908;1.870;2022-12-29T04:23:46;99381.81;;;10.03;95.60
71361;BME280;59166;48.908;1.870;2022-12-29T04:28:46;99382.38;;;10.05;96.21
71361;BME280;59166;48.908;1.870;2022-12-29T04:33:47;99386.41;;;10.08;96.57
71361;BME280;59166;48.908;1.870;2022-12-29T04:38:49;99390.97;;;10.12;97.18
71361;BME280;59166;48.908;1.870;2022-12-29T04:43:50;99396.31;;;10.17;97.63
71361;BME280;59166;48.908;1.870;2022-12-29T04:48:51;99399.56;;;10.19;97.97
71361;BME280;59166;48.908;1.870;2022-12-29T04:53:53;99408.44;;;10.20;97.67
71361;BME280;59166;48.908;1.870;2022-12-29T04:58:54;99404.91;;;10.24;95.60
71361;BME280;59166;48.908;1.870;2022-12-29T05:03:54;99406.97;;;10.38;93.37
71361;BME280;59166;48.908;1.870;2022-12-29T05:08:56;99401.63;;;10.32;93.14
71361;BME280;59166;48.908;1.870;2022-12-29T05:13:57;99407.34;;;10.26;93.44
71361;BME280;59166;48.908;1.870;2022-12-29T05:18:57;99415.72;;;10.24;92.35
71361;BME280;59166;48.908;1.870;2022-12-29T05:24:00;99430.28;;;10.23;91.11
71361;BME280;59166;48.908;1.870;2022-12-29T05:29:00;99428.69;;;10.17;91.06
71361;BME280;59166;48.908;1.870;2022-12-29T05:34:01;99428.44;;;10.19;90.70
71361;BME280;59166;48.908;1.870;2022-12-29T05:39:03;99433.59;;;10.15;91.17
71361;BME280;59166;48.908;1.870;2022-12-29T05:44:04;99433.63;;;10.05;90.99
71361;BME280;59166;48.908;1.870;2022-12-29T05:49:05;99446.00;;;10.11;90.51
71361;BME280;59166;48.908;1.870;2022-12-29T05:54:08;99444.44;;;10.05;90.88
71361;BME280;59166;48.908;1.870;2022-12-29T05:59:09;99453.66;;;9.99;91.48
71361;BME280;59166;48.908;1.870;2022-12-29T06:04:09;99467.13;;;9.94;92.39
71361;BME280;59166;48.908;1.870;2022-12-29T06:09:12;99469.59;;;9.91;92.42
71361;BME280;59166;48.908;1.870;2022-12-29T06:14:13;99471.75;;;9.89;91.82
71361;BME280;59166;48.908;1.870;2022-12-29T06:19:14;99481.75;;;9.83;92.50
71361;BME280;59166;48.908;1.870;2022-12-29T06:24:16;99496.34;;;9.82;92.94
71361;BME280;59166;48.908;1.870;2022-12-29T06:29:17;99496.59;;;9.80;92.94
71361;BME280;59166;48.908;1.870;2022-12-29T06:34:17;99509.22;;;9.90;92.95
71361;BME280;59166;48.908;1.870;2022-12-29T06:39:20;99516.81;;;9.88;93.10
71361;BME280;59166;48.908;1.870;2022-12-29T06:44:21;99509.81;;;9.82;94.04
71361;BME280;59166;48.908;1.870;2022-12-29T06:49:22;99515.22;;;9.82;93.58
71361;BME280;59166;48.908;1.870;2022-12-29T06:54:24;99534.66;;;9.79;93.76
71361;BME280;59166;48.908;1.870;2022-12-29T06:59:25;99537.06;;;9.80;93.02
71361;BME280;59166;48.908;1.870;2022-12-29T07:04:26;99536.28;;;9.75;93.26
71361;BME280;59166;48.908;1.870;2022-12-29T07:09:28;99530.59;;;9.81;92.58
71361;BME280;59166;48.908;1.870;2022-12-29T07:14:29;99537.88;;;9.81;92.67
71361;BME280;59166;48.908;1.870;2022-12-29T07:19:30;99537.34;;;9.79;91.86
71361;BME280;59166;48.908;1.870;2022-12-29T07:24:33;99552.19;;;9.71;92.52
71361;BME280;59166;48.908;1.870;2022-12-29T07:29:33;99547.88;;;9.75;90.57
71361;BME280;59166;48.908;1.870;2022-12-29T07:34:34;99554.59;;;9.78;89.93
71361;BME280;59166;48.908;1.870;2022-12-29T07:39:36;99566.47;;;9.72;90.46
71361;BME280;59166;48.908;1.870;2022-12-29T07:44:37;99571.88;;;9.67;91.78
71361;BME280;59166;48.908;1.870;2022-12-29T07:49:38;99581.84;;;9.66;90.94
71361;BME280;59166;48.908;1.870;2022-12-29T07:54:40;99592.91;;;9.60;91.62
71361;BME280;59166;48.908;1.870;2022-12-29T07:59:41;99602.09;;;9.59;90.80
71361;BME280;59166;48.908;1.870;2022-12-29T08:04:42;99615.81;;;9.62;90.32
71361;BME280;59166;48.908;1.870;2022-12-29T08:09:44;99619.34;;;9.63;89.93
71361;BME280;59166;48.908;1.870;2022-12-29T08:14:45;99624.44;;;9.59;89.86
71361;BME280;59166;48.908;1.870;2022-12-29T08:19:46;99639.84;;;9.59;90.27
71361;BME280;59166;48.908;1.870;2022-12-29T08:24:48;99653.59;;;9.57;90.07
71361;BME280;59166;48.908;1.870;2022-12-29T08:29:49;99649.56;;;9.55;90.98
71361;BME280;59166;48.908;1.870;2022-12-29T08:34:49;99659.25;;;9.51;91.43
71361;BME280;59166;48.908;1.870;2022-12-29T08:39:52;99664.13;;;9.49;91.21
71361;BME280;59166;48.908;1.870;2022-12-29T08:44:52;99665.47;;;9.51;91.50
71361;BME280;59166;48.908;1.870;2022-12-29T08:49:53;99672.19;;;9.49;91.61
71361;BME280;59166;48.908;1.870;2022-12-29T08:54:56;99689.16;;;9.49;91.76
71361;BME280;59166;48.908;1.870;2022-12-29T08:59:56;99699.94;;;9.49;92.32
71361;BME280;59166;48.908;1.870;2022-12-29T09:04:57;99706.16;;;9.50;91.16
71361;BME280;59166;48.908;1.870;2022-12-29T09:09:59;99705.63;;;9.48;92.15
71361;BME280;59166;48.908;1.870;2022-12-29T09:15:00;99723.69;;;9.47;91.94
71361;BME280;59166;48.908;1.870;2022-12-29T09:20:01;99721.53;;;9.44;91.83
71361;BME280;59166;48.908;1.870;2022-12-29T09:25:04;99725.56;;;9.42;91.76
71361;BME280;59166;48.908;1.870;2022-12-29T09:30:07;99727.97;;;9.43;92.66
71361;BME280;59166;48.908;1.870;2022-12-29T09:35:09;99736.34;;;9.47;92.88
71361;BME280;59166;48.908;1.870;2022-12-29T09:40:24;99746.59;;;9.50;91.79
71361;BME280;59166;48.908;1.870;2022-12-29T09:45:30;99751.19;;;9.54;91.62
71361;BME280;59166;48.908;1.870;2022-12-29T09:50:35;99749.84;;;9.57;91.65
71361;BME280;59166;48.908;1.870;2022-12-29T09:55:42;99764.66;;;9.59;91.25
71361;BME280;59166;48.908;1.870;2022-12-29T10:00:50;99770.03;;;9.49;91.72
71361;BME280;59166;48.908;1.870;2022-12-29T10:05:56;99777.84;;;9.46;91.55
71361;BME280;59166;48.908;1.870;2022-12-29T10:11:07;99772.47;;;9.46;90.82
71361;BME280;59166;48.908;1.870;2022-12-29T10:16:16;99774.38;;;9.45;90.80
71361;BME280;59166;48.908;1.870;2022-12-29T10:21:27;99773.84;;;9.48;90.88
71361;BME280;59166;48.908;1.870;2022-12-29T10:26:37;99783.88;;;9.78;90.78
71361;BME280;59166;48.908;1.870;2022-12-29T10:31:41;99779.31;;;9.99;88.21
71361;BME280;59166;48.908;1.870;2022-12-29T10:36:46;99773.63;;;10.10;87.46
71361;BME280;59166;48.908;1.870;2022-12-29T10:41:53;99773.63;;;10.25;86.63
71361;BME280;59166;48.908;1.870;2022-12-29T10:46:59;99763.63;;;10.36;85.61
71361;BME280;59166;48.908;1.870;2022-12-29T10:52:02;99766.06;;;10.38;85.17
71361;BME280;59166;48.908;1.870;2022-12-29T10:57:09;99748.25;;;10.47;85.45
71361;BME280;59166;48.908;1.870;2022-12-29T11:02:29;99754.66;;;10.61;86.31
71361;BME280;59166;48.908;1.870;2022-12-29T11:07:35;99759.53;;;10.74;84.90
71361;BME280;59166;48.908;1.870;2022-12-29T11:12:37;99759.81;;;10.47;84.41
71361;BME280;59166;48.908;1.870;2022-12-29T11:17:44;99761.22;;;10.14;86.79
71361;BME280;59166;48.908;1.870;2022-12-29T11:22:45;99760.13;;;10.25;86.87
71361;BME280;59166;48.908;1.870;2022-12-29T11:27:57;99757.91;;;10.63;84.98
71361;BME280;59166;48.908;1.870;2022-12-29T11:33:18;99780.06;;;10.80;82.65
71361;BME280;59166;48.908;1.870;2022-12-29T11:38:21;99770.53;;;11.03;83.51
71361;BME280;59166;48.908;1.870;2022-12-29T11:43:45;99762.91;;;11.15;82.42
71361;BME280;59166;48.908;1.870;2022-12-29T11:48:47;99762.59;;;11.26;80.46
71361;BME280;59166;48.908;1.870;2022-12-29T11:53:50;99751.22;;;11.29;80.02
71361;BME280;59166;48.908;1.870;2022-12-29T11:58:53;99755.28;;;11.22;79.70
71361;BME280;59166;48.908;1.870;2022-12-29T12:04:01;99751.31;;;11.14;80.13
71361;BME280;59166;48.908;1.870;2022-12-29T12:09:08;99749.13;;;11.11;80.06
71361;BME280;59166;48.908;1.870;2022-12-29T12:14:19;99747.50;;;11.15;81.48
71361;BME280;59166;48.908;1.870;2022-12-29T12:19:32;99745.94;;;11.04;81.07
71361;BME280;59166;48.908;1.870;2022-12-29T12:24:41;99751.09;;;10.96;82.30
71361;BME280;59166;48.908;1.870;2022-12-29T12:29:52;99757.06;;;10.93;80.65
71361;BME280;59166;48.908;1.870;2022-12-29T12:34:54;99753.00;;;10.90;80.70
71361;BME280;59166;48.908;1.870;2022-12-29T12:40:13;99750.56;;;10.89;81.24
71361;BME280;59166;48.908;1.870;2022-12-29T12:45:36;99757.56;;;11.00;78.96
71361;BME280;59166;48.908;1.870;2022-12-29T12:50:50;99759.72;;;11.03;79.06
71361;BME280;59166;48.908;1.870;2022-12-29T12:56:25;99749.16;;;11.01;77.98
71361;BME280;59166;48.908;1.870;2022-12-29T13:01:38;99748.03;;;11.12;76.95
71361;BME280;59166;48.908;1.870;2022-12-29T13:07:16;99757.19;;;11.26;75.28
71361;BME280;59166;48.908;1.870;2022-12-29T13:12:29;99753.34;;;11.32;73.69
71361;BME280;59166;48.908;1.870;2022-12-29T13:17:42;99752.53;;;11.37;73.70
71361;BME280;59166;48.908;1.870;2022-12-29T13:22:50;99762.06;;;11.19;72.73
71361;BME280;59166;48.908;1.870;2022-12-29T13:28:17;99758.59;;;11.14;71.91
71361;BME280;59166;48.908;1.870;2022-12-29T13:33:44;99755.84;;;11.19;72.54
71361;BME280;59166;48.908;1.870;2022-12-29T13:38:51;99741.53;;;11.18;73.16
71361;BME280;59166;48.908;1.870;2022-12-29T13:43:56;99751.31;;;11.14;74.66
71361;BME280;59166;48.908;1.870;2022-12-29T13:49:04;99742.63;;;11.17;74.08
71361;BME280;59166;48.908;1.870;2022-12-29T13:54:14;99758.91;;;11.02;74.64
71361;BME280;59166;48.908;1.870;2022-12-29T13:59:33;99764.56;;;11.06;77.13
71361;BME280;59166;48.908;1.870;2022-12-29T14:04:55;99755.06;;;11.13;74.27
71361;BME280;59166;48.908;1.870;2022-12-29T14:09:57;99769.72;;;11.07;74.51
71361;BME280;59166;48.908;1.870;2022-12-29T14:15:06;99759.16;;;11.11;70.65
71361;BME280;59166;48.908;1.870;2022-12-29T14:20:21;99759.09;;;11.21;71.45
71361;BME280;59166;48.908;1.870;2022-12-29T14:25:54;99762.94;;;11.10;68.16
71361;BME280;59166;48.908;1.870;2022-12-29T14:30:57;99762.69;;;11.01;70.40
71361;BME280;59166;48.908;1.870;2022-12-29T14:36:21;99757.88;;;10.93;69.99
71361;BME280;59166;48.908;1.870;2022-12-29T14:41:27;99766.00;;;10.78;69.62
71361;BME280;59166;48.908;1.870;2022-12-29T14:46:57;99777.34;;;10.70;68.32
71361;BME280;59166;48.908;1.870;2022-12-29T14:52:28;99783.31;;;10.62;68.81
71361;BME280;59166;48.908;1.870;2022-12-29T14:57:35;99775.72;;;10.64;68.72
71361;BME280;59166;48.908;1.870;2022-12-29T15:02:41;99779.25;;;10.59;69.97
71361;BME280;59166;48.908;1.870;2022-12-29T15:07:46;99791.41;;;10.52;70.01
71361;BME280;59166;48.908;1.870;2022-12-29T15:12:51;99802.78;;;10.49;70.00
71361;BME280;59166;48.908;1.870;2022-12-29T15:17:53;99794.13;;;10.42;69.26
71361;BME280;59166;48.908;1.870;2022-12-29T15:22:57;99802.25;;;10.37;70.26
71361;BME280;59166;48.908;1.870;2022-12-29T15:28:01;99807.09;;;10.24;70.63
71361;BME280;59166;48.908;1.870;2022-12-29T15:33:02;99817.63;;;10.16;71.33
71361;BME280;59166;48.908;1.870;2022-12-29T15:38:15;99819.22;;;10.07;72.58
71361;BME280;59166;48.908;1.870;2022-12-29T15:43:26;99819.50;;;9.95;72.46
71361;BME280;59166;48.908;1.870;2022-12-29T15:48:45;99829.19;;;9.86;74.57
71361;BME280;59166;48.908;1.870;2022-12-29T15:53:49;99821.88;;;9.71;75.64
71361;BME280;59166;48.908;1.870;2022-12-29T15:58:52;99830.19;;;9.60;76.08
71361;BME280;59166;48.908;1.870;2022-12-29T16:03:53;99828.56;;;9.49;76.05
71361;BME280;59166;48.908;1.870;2022-12-29T16:09:00;99838.50;;;9.38;76.62
71361;BME280;59166;48.908;1.870;2022-12-29T16:14:05;99837.66;;;9.27;75.29
71361;BME280;59166;48.908;1.870;2022-12-29T16:19:13;99844.09;;;9.21;76.10
71361;BME280;59166;48.908;1.870;2022-12-29T16:24:17;99841.34;;;9.16;76.14
71361;BME280;59166;48.908;1.870;2022-12-29T16:29:20;99853.16;;;9.05;76.83
71361;BME280;59166;48.908;1.870;2022-12-29T16:34:24;99854.47;;;8.98;77.57
71361;BME280;59166;48.908;1.870;2022-12-29T16:39:32;99860.88;;;8.92;78.05
71361;BME280;59166;48.908;1.870;2022-12-29T16:44:33;99862.69;;;8.81;78.63
71361;BME280;59166;48.908;1.870;2022-12-29T16:49:35;99864.22;;;8.72;78.54
71361;BME280;59166;48.908;1.870;2022-12-29T16:54:39;99882.47;;;8.65;78.26
71361;BME280;59166;48.908;1.870;2022-12-29T16:59:41;99883.28;;;8.65;78.58
71361;BME280;59166;48.908;1.870;2022-12-29T17:04:42;99901.31;;;8.60;79.46
71361;BME280;59166;48.908;1.870;2022-12-29T17:09:45;99908.72;;;8.48;80.76
71361;BME280;59166;48.908;1.870;2022-12-29T17:14:47;99906.75;;;8.38;81.65
71361;BME280;59166;48.908;1.870;2022-12-29T17:19:52;99912.41;;;8.37;82.43
71361;BME280;59166;48.908;1.870;2022-12-29T17:24:57;99912.34;;;8.31;81.94
71361;BME280;59166;48.908;1.870;2022-12-29T17:30:19;99916.09;;;8.30;81.98
71361;BME280;59166;48.908;1.870;2022-12-29T17:35:21;99913.38;;;8.25;82.93
71361;BME280;59166;48.908;1.870;2022-12-29T17:40:26;99909.22;;;8.13;82.47
71361;BME280;59166;48.908;1.870;2022-12-29T17:45:28;99929.34;;;8.10;83.31
71361;BME280;59166;48.908;1.870;2022-12-29T17:50:30;99924.97;;;8.04;82.95
71361;BME280;59166;48.908;1.870;2022-12-29T17:55:32;99933.00;;;7.99;83.20
71361;BME280;59166;48.908;1.870;2022-12-29T18:00:34;99945.25;;;7.90;83.97
71361;BME280;59166;48.908;1.870;2022-12-29T18:05:35;99957.53;;;7.81;84.91
71361;BME280;59166;48.908;1.870;2022-12-29T18:10:37;99956.34;;;7.72;86.13
71361;BME280;59166;48.908;1.870;2022-12-29T18:15:39;99965.47;;;7.71;86.66
71361;BME280;59166;48.908;1.870;2022-12-29T18:20:41;99976.50;;;7.69;87.92
71361;BME280;59166;48.908;1.870;2022-12-29T18:25:46;99970.53;;;7.67;88.00
71361;BME280;59166;48.908;1.870;2022-12-29T18:30:49;99976.69;;;7.63;89.70
71361;BME280;59166;48.908;1.870;2022-12-29T18:35:52;99979.66;;;7.66;89.86
71361;BME280;59166;48.908;1.870;2022-12-29T18:40:57;99979.09;;;7.64;89.64
71361;BME280;59166;48.908;1.870;2022-12-29T18:45:58;99988.47;;;7.62;89.73
71361;BME280;59166;48.908;1.870;2022-12-29T18:50:58;100003.72;;;7.56;89.80
71361;BME280;59166;48.908;1.870;2022-12-29T18:56:01;99992.97;;;7.56;89.88
71361;BME280;59166;48.908;1.870;2022-12-29T19:01:02;99994.78;;;7.51;90.18
71361;BME280;59166;48.908;1.870;2022-12-29T19:06:03;99994.44;;;7.47;90.51
71361;BME280;59166;48.908;1.870;2022-12-29T19:11:05;100008.88;;;7.41;90.81
71361;BME280;59166;48.908;1.870;2022-12-29T19:16:08;100006.38;;;7.35;90.77
71361;BME280;59166;48.908;1.870;2022-12-29T19:21:12;100004.84;;;7.22;91.68
71361;BME280;59166;48.908;1.870;2022-12-29T19:26:26;100003.94;;;7.16;92.46
71361;BME280;59166;48.908;1.870;2022-12-29T19:31:27;100008.25;;;7.17;93.23
71361;BME280;59166;48.908;1.870;2022-12-29T19:36:28;100008.16;;;7.12;93.32
71361;BME280;59166;48.908;1.870;2022-12-29T19:41:30;100008.16;;;7.12;94.02
71361;BME280;59166;48.908;1.870;2022-12-29T19:46:31;100013.31;;;7.14;94.39
71361;BME280;59166;48.908;1.870;2022-12-29T19:51:32;100024.03;;;7.14;94.72
71361;BME280;59166;48.908;1.870;2022-12-29T19:56:34;100028.88;;;7.12;95.17
71361;BME280;59166;48.908;1.870;2022-12-29T20:01:35;100025.84;;;7.08;96.07
71361;BME280;59166;48.908;1.870;2022-12-29T20:06:36;100015.66;;;7.10;96.48
71361;BME280;59166;48.908;1.870;2022-12-29T20:11:38;100020.53;;;7.13;96.06
71361;BME280;59166;48.908;1.870;2022-12-29T20:16:38;100022.19;;;7.14;96.28
71361;BME280;59166;48.908;1.870;2022-12-29T20:21:39;100030.13;;;7.09;96.62
71361;BME280;59166;48.908;1.870;2022-12-29T20:26:42;100026.41;;;7.10;96.67
71361;BME280;59166;48.908;1.870;2022-12-29T20:31:43;100024.28;;;7.12;96.99
71361;BME280;59166;48.908;1.870;2022-12-29T20:36:46;100021.75;;;7.06;97.18
71361;BME280;59166;48.908;1.870;2022-12-29T20:41:49;100023.50;;;6.95;97.96
71361;BME280;59166;48.908;1.870;2022-12-29T20:46:50;100015.66;;;6.94;97.63
71361;BME280;59166;48.908;1.870;2022-12-29T20:51:51;100008.81;;;6.86;98.49
71361;BME280;59166;48.908;1.870;2022-12-29T20:56:54;100013.63;;;6.84;98.79
71361;BME280;59166;48.908;1.870;2022-12-29T21:01:55;100009.31;;;6.83;98.38
71361;BME280;59166;48.908;1.870;2022-12-29T21:06:56;100005.81;;;6.83;99.07
71361;BME280;59166;48.908;1.870;2022-12-29T21:11:58;100016.69;;;6.76;99.68
71361;BME280;59166;48.908;1.870;2022-12-29T21:16:59;100030.13;;;6.76;99.46
71361;BME280;59166;48.908;1.870;2022-12-29T21:22:00;100028.63;;;6.68;100.00
71361;BME280;59166;48.908;1.870;2022-12-29T21:27:02;100026.28;;;6.72;100.00
71361;BME280;59166;48.908;1.870;2022-12-29T21:32:03;100030.53;;;6.68;100.00
71361;BME280;59166;48.908;1.870;2022-12-29T21:37:04;100033.59;;;6.60;100.00
71361;BME280;59166;48.908;1.870;2022-12-29T21:42:06;100023.09;;;6.58;100.00
71361;BME280;59166;48.908;1.870;2022-12-29T21:47:07;100030.00;;;6.54;100.00
71361;BME280;59166;48.908;1.870;2022-12-29T21:52:08;100030.94;;;6.48;100.00
71361;BME280;59166;48.908;1.870;2022-12-29T21:57:11;100026.53;;;6.42;100.00
71361;BME280;59166;48.908;1.870;2022-12-29T22:02:17;100041.72;;;6.37;100.00
71361;BME280;59166;48.908;1.870;2022-12-29T22:07:18;100043.03;;;6.34;100.00
71361;BME280;59166;48.908;1.870;2022-12-29T22:12:21;100040.81;;;6.31;100.00
71361;BME280;59166;48.908;1.870;2022-12-29T22:17:21;100052.34;;;6.32;100.00
71361;BME280;59166;48.908;1.870;2022-12-29T22:22:22;100055.50;;;6.28;100.00
71361;BME280;59166;48.908;1.870;2022-12-29T22:27:24;100046.28;;;6.24;100.00
71361;BME280;59166;48.908;1.870;2022-12-29T22:32:25;100043.28;;;6.21;100.00
71361;BME280;59166;48.908;1.870;2022-12-29T22:37:26;100041.31;;;6.16;100.00
71361;BME280;59166;48.908;1.870;2022-12-29T22:42:28;100046.22;;;6.08;100.00
71361;BME280;59166;48.908;1.870;2022-12-29T22:47:29;100054.41;;;6.01;100.00
71361;BME280;59166;48.908;1.870;2022-12-29T22:52:30;100050.34;;;5.99;100.00
71361;BME280;59166;48.908;1.870;2022-12-29T22:57:32;100048.34;;;5.94;100.00
71361;BME280;59166;48.908;1.870;2022-12-29T23:02:33;100047.31;;;5.95;100.00
71361;BME280;59166;48.908;1.870;2022-12-29T23:07:34;100052.59;;;5.90;100.00
71361;BME280;59166;48.908;1.870;2022-12-29T23:12:37;100043.03;;;5.83;100.00
71361;BME280;59166;48.908;1.870;2022-12-29T23:17:37;100048.63;;;5.81;100.00
71361;BME280;59166;48.908;1.870;2022-12-29T23:22:38;100043.16;;;5.76;100.00
71361;BME280;59166;48.908;1.870;2022-12-29T23:27:40;100040.00;;;5.79;100.00
71361;BME280;59166;48.908;1.870;2022-12-29T23:32:41;100041.03;;;5.78;100.00
71361;BME280;59166;48.908;1.870;2022-12-29T23:37:42;100044.19;;;5.75;100.00
71361;BME280;59166;48.908;1.870;2022-12-29T23:42:44;100045.50;;;5.72;100.00
71361;BME280;59166;48.908;1.870;2022-12-29T23:47:45;100046.78;;;5.70;100.00
71361;BME280;59166;48.908;1.870;2022-12-29T23:52:46;100028.72;;;5.65;100.00
71361;BME280;59166;48.908;1.870;2022-12-29T23:57:48;100029.66;;;5.59;100.00
